N751CT KCLE-KMIA
Flight info
| Callsign | N751CT |
|---|---|
| Flight time | 2h 25m |
| Altitude | 38000 |
| Route | CAVVS4 APE Q149 BURGG/N0514F390 QUIWE/N0517F380 Q93 FISHO/N0517F390 Q93 GURGE/N0518F380 Q93 DEBRL CSTAL2 |
| Aircraft | C750/M-SBDE3FGHRWXY/S |
Departure
| Time | 2026-05-04 23:35 |
|---|---|
| Airport | Cleveland Hopkins International Airport (KCLE) |
Arrival
| Time | 2026-05-05 02:00 |
|---|---|
| Airport | Miami International Airport (KMIA) |
| Time | Latitude | Longitude | Altitude | Speed | Heading |
|---|---|---|---|---|---|
| 2026-05-04 23:14 | 41.40208 | -81.85384 | 789 ft | 0 kts | 92° |
| 2026-05-04 23:28 | 41.40208 | -81.85383 | 789 ft | 1 kts | 91° |
| 2026-05-04 23:28 | 41.40216 | -81.85373 | 789 ft | 2 kts | 23° |
| 2026-05-04 23:28 | 41.40221 | -81.85374 | 789 ft | 0 kts | 351° |
| 2026-05-04 23:29 | 41.40226 | -81.85379 | 789 ft | 1 kts | 325° |
| 2026-05-04 23:29 | 41.40239 | -81.85391 | 789 ft | 5 kts | 325° |
| 2026-05-04 23:29 | 41.40283 | -81.85420 | 789 ft | 9 kts | 345° |
| 2026-05-04 23:29 | 41.40359 | -81.85443 | 787 ft | 14 kts | 345° |
| 2026-05-04 23:30 | 41.40471 | -81.85491 | 782 ft | 18 kts | 342° |
| 2026-05-04 23:30 | 41.40546 | -81.85521 | 781 ft | 7 kts | 355° |
| 2026-05-04 23:30 | 41.40577 | -81.85491 | 782 ft | 5 kts | 49° |
| 2026-05-04 23:30 | 41.40601 | -81.85455 | 782 ft | 5 kts | 50° |
| 2026-05-04 23:31 | 41.40633 | -81.85403 | 782 ft | 10 kts | 49° |
| 2026-05-04 23:31 | 41.40691 | -81.85311 | 780 ft | 16 kts | 50° |
| 2026-05-04 23:31 | 41.40773 | -81.85182 | 783 ft | 20 kts | 51° |
| 2026-05-04 23:31 | 41.40864 | -81.85034 | 785 ft | 21 kts | 49° |
| 2026-05-04 23:32 | 41.40958 | -81.84887 | 790 ft | 20 kts | 50° |
| 2026-05-04 23:32 | 41.41051 | -81.84740 | 792 ft | 22 kts | 50° |
| 2026-05-04 23:32 | 41.41147 | -81.84585 | 794 ft | 24 kts | 51° |
| 2026-05-04 23:32 | 41.41263 | -81.84406 | 793 ft | 26 kts | 50° |
| 2026-05-04 23:33 | 41.41374 | -81.84230 | 793 ft | 23 kts | 50° |
| 2026-05-04 23:33 | 41.41430 | -81.84151 | 794 ft | 6 kts | 29° |
| 2026-05-04 23:33 | 41.41444 | -81.84145 | 794 ft | 0 kts | 9° |
| 2026-05-04 23:34 | 41.41446 | -81.84145 | 795 ft | 2 kts | 9° |
| 2026-05-04 23:34 | 41.41475 | -81.84160 | 795 ft | 7 kts | 320° |
| 2026-05-04 23:34 | 41.41496 | -81.84254 | 793 ft | 14 kts | 253° |
| 2026-05-04 23:34 | 41.41386 | -81.84437 | 793 ft | 57 kts | 230° |
| 2026-05-04 23:35 | 41.40932 | -81.85153 | 794 ft | 133 kts | 228° |
| 2026-05-04 23:35 | 41.40375 | -81.86088 | 1499 ft | 127 kts | 228° |
| 2026-05-04 23:35 | 41.39826 | -81.87077 | 2094 ft | 137 kts | 229° |
| 2026-05-04 23:35 | 41.39189 | -81.88006 | 2869 ft | 135 kts | 227° |
| 2026-05-04 23:36 | 41.38457 | -81.88786 | 3605 ft | 138 kts | 214° |
| 2026-05-04 23:36 | 41.37538 | -81.89206 | 4367 ft | 141 kts | 205° |
| 2026-05-04 23:36 | 41.36920 | -81.89457 | 4873 ft | 140 kts | 206° |
| 2026-05-04 23:36 | 41.36003 | -81.89853 | 5600 ft | 136 kts | 207° |
| 2026-05-04 23:37 | 41.34751 | -81.90408 | 6162 ft | 157 kts | 207° |
| 2026-05-04 23:37 | 41.33690 | -81.90866 | 6751 ft | 160 kts | 207° |
| 2026-05-04 23:37 | 41.32623 | -81.91324 | 7411 ft | 163 kts | 208° |
| 2026-05-04 23:37 | 41.31533 | -81.91798 | 8074 ft | 166 kts | 209° |
| 2026-05-04 23:38 | 41.30800 | -81.92116 | 8527 ft | 169 kts | 209° |
| 2026-05-04 23:38 | 41.29615 | -81.92643 | 8913 ft | 194 kts | 209° |
| 2026-05-04 23:38 | 41.28245 | -81.93245 | 9295 ft | 220 kts | 207° |
| 2026-05-04 23:38 | 41.26703 | -81.93910 | 9654 ft | 246 kts | 207° |
| 2026-05-04 23:39 | 41.25019 | -81.94631 | 10016 ft | 264 kts | 207° |
| 2026-05-04 23:39 | 41.23169 | -81.95436 | 10028 ft | 296 kts | 206° |
| 2026-05-04 23:39 | 41.21128 | -81.96319 | 10029 ft | 315 kts | 205° |
| 2026-05-04 23:39 | 41.19038 | -81.97215 | 10017 ft | 313 kts | 207° |
| 2026-05-04 23:40 | 41.16976 | -81.98328 | 10129 ft | 328 kts | 209° |
| 2026-05-04 23:40 | 41.14888 | -81.99441 | 10888 ft | 329 kts | 208° |
| 2026-05-04 23:40 | 41.12745 | -82.00560 | 11527 ft | 333 kts | 208° |
| 2026-05-04 23:40 | 41.10578 | -82.01708 | 12166 ft | 338 kts | 208° |
| 2026-05-04 23:41 | 41.08374 | -82.02884 | 12796 ft | 343 kts | 207° |
| 2026-05-04 23:41 | 41.06143 | -82.04067 | 13406 ft | 348 kts | 207° |
| 2026-05-04 23:41 | 41.03883 | -82.05259 | 13992 ft | 352 kts | 207° |
| 2026-05-04 23:41 | 41.01596 | -82.06468 | 14571 ft | 355 kts | 207° |
| 2026-05-04 23:42 | 40.99289 | -82.07689 | 15145 ft | 359 kts | 207° |
| 2026-05-04 23:42 | 40.96955 | -82.08923 | 15726 ft | 362 kts | 206° |
| 2026-05-04 23:42 | 40.94634 | -82.10230 | 16276 ft | 364 kts | 210° |
| 2026-05-04 23:42 | 40.92368 | -82.11652 | 16875 ft | 367 kts | 210° |
| 2026-05-04 23:43 | 40.90041 | -82.13093 | 17506 ft | 371 kts | 209° |
| 2026-05-04 23:43 | 40.87685 | -82.14536 | 18122 ft | 375 kts | 209° |
| 2026-05-04 23:43 | 40.85312 | -82.15996 | 18646 ft | 379 kts | 209° |
| 2026-05-04 23:43 | 40.82910 | -82.17481 | 19208 ft | 383 kts | 209° |
| 2026-05-04 23:44 | 40.80482 | -82.18978 | 19793 ft | 387 kts | 208° |
| 2026-05-04 23:44 | 40.78031 | -82.20485 | 20381 ft | 391 kts | 208° |
| 2026-05-04 23:44 | 40.75553 | -82.22007 | 20975 ft | 394 kts | 208° |
| 2026-05-04 23:44 | 40.73092 | -82.23520 | 21554 ft | 398 kts | 208° |
| 2026-05-04 23:45 | 40.70567 | -82.25071 | 22123 ft | 402 kts | 208° |
| 2026-05-04 23:45 | 40.68021 | -82.26632 | 22700 ft | 406 kts | 208° |
| 2026-05-04 23:45 | 40.65443 | -82.28211 | 23262 ft | 410 kts | 208° |
| 2026-05-04 23:45 | 40.62848 | -82.29800 | 23708 ft | 414 kts | 207° |
| 2026-05-04 23:46 | 40.60228 | -82.31403 | 24209 ft | 417 kts | 207° |
| 2026-05-04 23:46 | 40.57587 | -82.33020 | 24686 ft | 420 kts | 207° |
| 2026-05-04 23:46 | 40.54929 | -82.34648 | 25164 ft | 423 kts | 207° |
| 2026-05-04 23:46 | 40.52260 | -82.36278 | 25626 ft | 426 kts | 207° |
| 2026-05-04 23:47 | 40.49596 | -82.37904 | 26092 ft | 429 kts | 207° |
| 2026-05-04 23:47 | 40.46882 | -82.39558 | 26569 ft | 432 kts | 207° |
| 2026-05-04 23:47 | 40.44147 | -82.41226 | 27006 ft | 436 kts | 207° |
| 2026-05-04 23:47 | 40.41383 | -82.42909 | 27474 ft | 439 kts | 207° |
| 2026-05-04 23:48 | 40.38607 | -82.44597 | 27943 ft | 442 kts | 207° |
| 2026-05-04 23:48 | 40.35809 | -82.46296 | 28420 ft | 445 kts | 208° |
| 2026-05-04 23:48 | 40.32985 | -82.48012 | 28877 ft | 449 kts | 207° |
| 2026-05-04 23:48 | 40.30146 | -82.49735 | 29343 ft | 452 kts | 207° |
| 2026-05-04 23:49 | 40.27281 | -82.51471 | 29793 ft | 455 kts | 207° |
| 2026-05-04 23:49 | 40.24444 | -82.53188 | 30169 ft | 458 kts | 207° |
| 2026-05-04 23:49 | 40.21540 | -82.54945 | 30595 ft | 459 kts | 207° |
| 2026-05-04 23:49 | 40.18597 | -82.56583 | 31056 ft | 462 kts | 202° |
| 2026-05-04 23:50 | 40.15486 | -82.57660 | 31649 ft | 463 kts | 194° |
| 2026-05-04 23:50 | 40.12276 | -82.58138 | 32203 ft | 466 kts | 186° |
| 2026-05-04 23:50 | 40.09029 | -82.57994 | 32750 ft | 469 kts | 178° |
| 2026-05-04 23:50 | 40.05783 | -82.57531 | 33308 ft | 469 kts | 177° |
| 2026-05-04 23:51 | 40.02549 | -82.57087 | 33858 ft | 468 kts | 178° |
| 2026-05-04 23:51 | 39.99350 | -82.56658 | 34347 ft | 467 kts | 178° |
| 2026-05-04 23:51 | 39.96125 | -82.56213 | 34895 ft | 465 kts | 178° |
| 2026-05-04 23:51 | 39.92916 | -82.55764 | 35409 ft | 464 kts | 178° |
| 2026-05-04 23:52 | 39.89707 | -82.55321 | 35928 ft | 462 kts | 178° |
| 2026-05-04 23:52 | 39.86509 | -82.54885 | 36453 ft | 461 kts | 178° |
| 2026-05-04 23:52 | 39.83325 | -82.54449 | 36974 ft | 460 kts | 178° |
| 2026-05-04 23:52 | 39.80151 | -82.54012 | 37490 ft | 459 kts | 178° |
| 2026-05-04 23:53 | 39.76971 | -82.53576 | 37839 ft | 461 kts | 178° |
| 2026-05-04 23:53 | 39.73745 | -82.53139 | 37828 ft | 471 kts | 178° |
| 2026-05-04 23:53 | 39.67139 | -82.52235 | 37843 ft | 489 kts | 178° |
| 2026-05-04 23:54 | 39.60261 | -82.51295 | 37837 ft | 503 kts | 178° |
| 2026-05-04 23:54 | 39.53224 | -82.50336 | 37833 ft | 513 kts | 178° |
| 2026-05-04 23:55 | 39.46104 | -82.49367 | 37842 ft | 517 kts | 178° |
| 2026-05-04 23:56 | 39.35419 | -82.47918 | 37844 ft | 517 kts | 178° |
| 2026-05-04 23:56 | 39.28260 | -82.46951 | 37831 ft | 518 kts | 178° |
| 2026-05-04 23:57 | 39.21107 | -82.45985 | 37833 ft | 517 kts | 178° |
| 2026-05-04 23:57 | 39.13942 | -82.45021 | 37833 ft | 517 kts | 178° |
| 2026-05-04 23:58 | 39.06838 | -82.44066 | 37836 ft | 518 kts | 178° |
| 2026-05-04 23:58 | 38.99672 | -82.43104 | 37844 ft | 517 kts | 178° |
| 2026-05-04 23:59 | 38.92517 | -82.42147 | 37842 ft | 517 kts | 178° |
| 2026-05-04 23:59 | 38.85379 | -82.41194 | 37849 ft | 519 kts | 178° |
| 2026-05-05 00:00 | 38.78194 | -82.40235 | 37852 ft | 519 kts | 178° |
| 2026-05-05 00:00 | 38.71006 | -82.39280 | 37853 ft | 519 kts | 178° |
| 2026-05-05 00:01 | 38.63826 | -82.38326 | 37835 ft | 519 kts | 178° |
| 2026-05-05 00:01 | 38.56641 | -82.37375 | 37855 ft | 519 kts | 178° |
| 2026-05-05 00:02 | 38.49501 | -82.36430 | 37855 ft | 519 kts | 178° |
| 2026-05-05 00:02 | 38.42313 | -82.35482 | 37856 ft | 519 kts | 178° |
| 2026-05-05 00:03 | 38.35119 | -82.34535 | 37855 ft | 522 kts | 178° |
| 2026-05-05 00:03 | 38.27901 | -82.33585 | 37856 ft | 521 kts | 178° |
| 2026-05-05 00:04 | 38.20744 | -82.32647 | 37854 ft | 521 kts | 178° |
| 2026-05-05 00:04 | 38.13527 | -82.31701 | 37858 ft | 521 kts | 178° |
| 2026-05-05 00:05 | 38.06320 | -82.30756 | 37867 ft | 521 kts | 178° |
| 2026-05-05 00:05 | 37.99112 | -82.29816 | 37865 ft | 521 kts | 178° |
| 2026-05-05 00:06 | 37.91895 | -82.28875 | 37877 ft | 522 kts | 178° |
| 2026-05-05 00:06 | 37.84716 | -82.27942 | 37881 ft | 522 kts | 178° |
| 2026-05-05 00:07 | 37.77487 | -82.27001 | 37887 ft | 522 kts | 178° |
| 2026-05-05 00:07 | 37.70254 | -82.26065 | 37890 ft | 522 kts | 178° |
| 2026-05-05 00:08 | 37.63014 | -82.25129 | 37889 ft | 523 kts | 178° |
| 2026-05-05 00:08 | 37.55772 | -82.24193 | 37892 ft | 523 kts | 178° |
| 2026-05-05 00:09 | 37.48576 | -82.23266 | 37916 ft | 524 kts | 178° |
| 2026-05-05 00:09 | 37.41330 | -82.22335 | 37901 ft | 524 kts | 178° |
| 2026-05-05 00:10 | 37.34091 | -82.21404 | 37912 ft | 523 kts | 178° |
| 2026-05-05 00:10 | 37.26838 | -82.20476 | 37912 ft | 523 kts | 179° |
| 2026-05-05 00:11 | 37.19636 | -82.19555 | 37926 ft | 524 kts | 179° |
| 2026-05-05 00:11 | 37.12367 | -82.18628 | 37945 ft | 525 kts | 179° |
| 2026-05-05 00:12 | 37.05105 | -82.17703 | 37954 ft | 524 kts | 179° |
| 2026-05-05 00:12 | 36.97839 | -82.16779 | 37947 ft | 524 kts | 179° |
| 2026-05-05 00:13 | 36.90609 | -82.15863 | 37958 ft | 526 kts | 179° |
| 2026-05-05 00:13 | 36.83340 | -82.14941 | 37974 ft | 525 kts | 179° |
| 2026-05-05 00:14 | 36.76065 | -82.14022 | 37992 ft | 526 kts | 179° |
| 2026-05-05 00:14 | 36.68805 | -82.13105 | 37996 ft | 524 kts | 179° |
| 2026-05-05 00:15 | 36.61547 | -82.12193 | 37996 ft | 524 kts | 179° |
| 2026-05-05 00:15 | 36.54340 | -82.11287 | 37962 ft | 524 kts | 179° |
| 2026-05-05 00:16 | 36.47079 | -82.10375 | 37966 ft | 524 kts | 179° |
| 2026-05-05 00:16 | 36.39814 | -82.09467 | 37958 ft | 524 kts | 179° |
| 2026-05-05 00:17 | 36.32567 | -82.08561 | 37956 ft | 524 kts | 179° |
| 2026-05-05 00:17 | 36.25362 | -82.07662 | 37962 ft | 524 kts | 179° |
| 2026-05-05 00:18 | 36.18089 | -82.06758 | 37976 ft | 527 kts | 180° |
| 2026-05-05 00:18 | 36.10793 | -82.05849 | 37977 ft | 527 kts | 180° |
| 2026-05-05 00:19 | 36.03490 | -82.04945 | 37986 ft | 528 kts | 180° |
| 2026-05-05 00:19 | 35.96203 | -82.04041 | 37986 ft | 525 kts | 180° |
| 2026-05-05 00:20 | 35.88951 | -82.03147 | 37990 ft | 527 kts | 180° |
| 2026-05-05 00:20 | 35.81663 | -82.02246 | 37994 ft | 526 kts | 180° |
| 2026-05-05 00:21 | 35.74365 | -82.01350 | 37997 ft | 526 kts | 180° |
| 2026-05-05 00:21 | 35.67069 | -82.00452 | 38010 ft | 527 kts | 180° |
| 2026-05-05 00:22 | 35.59772 | -81.99557 | 38020 ft | 527 kts | 180° |
| 2026-05-05 00:22 | 35.52524 | -81.98669 | 38031 ft | 527 kts | 180° |
| 2026-05-05 00:23 | 35.45239 | -81.97779 | 38033 ft | 526 kts | 180° |
| 2026-05-05 00:23 | 35.37937 | -81.96888 | 38036 ft | 526 kts | 180° |
| 2026-05-05 00:24 | 35.30644 | -81.96000 | 38029 ft | 527 kts | 180° |
| 2026-05-05 00:24 | 35.23396 | -81.95119 | 38010 ft | 527 kts | 180° |
| 2026-05-05 00:25 | 35.16105 | -81.94235 | 38011 ft | 527 kts | 180° |
| 2026-05-05 00:25 | 35.08815 | -81.93351 | 38019 ft | 527 kts | 180° |
| 2026-05-05 00:26 | 35.01538 | -81.92010 | 38014 ft | 535 kts | 170° |
| 2026-05-05 00:26 | 34.94495 | -81.89146 | 38038 ft | 539 kts | 166° |
| 2026-05-05 00:27 | 34.87366 | -81.86352 | 38043 ft | 537 kts | 168° |
| 2026-05-05 00:27 | 34.80255 | -81.83530 | 38039 ft | 538 kts | 166° |
| 2026-05-05 00:28 | 34.73137 | -81.80707 | 38033 ft | 537 kts | 167° |
| 2026-05-05 00:28 | 34.66068 | -81.77934 | 38037 ft | 539 kts | 167° |
| 2026-05-05 00:29 | 34.58945 | -81.75112 | 38039 ft | 538 kts | 167° |
| 2026-05-05 00:29 | 34.51823 | -81.72328 | 38036 ft | 538 kts | 167° |
| 2026-05-05 00:30 | 34.44705 | -81.69522 | 38035 ft | 538 kts | 167° |
| 2026-05-05 00:30 | 34.37572 | -81.66737 | 38071 ft | 539 kts | 167° |
| 2026-05-05 00:31 | 34.30504 | -81.63966 | 38072 ft | 536 kts | 167° |
| 2026-05-05 00:31 | 34.23400 | -81.61199 | 38075 ft | 537 kts | 167° |
| 2026-05-05 00:32 | 34.16296 | -81.58428 | 38061 ft | 536 kts | 167° |
| 2026-05-05 00:32 | 34.09182 | -81.55663 | 38030 ft | 537 kts | 167° |
| 2026-05-05 00:33 | 34.02065 | -81.52898 | 38029 ft | 537 kts | 167° |
| 2026-05-05 00:33 | 33.94982 | -81.50303 | 38018 ft | 532 kts | 172° |
| 2026-05-05 00:34 | 33.87708 | -81.49204 | 38040 ft | 526 kts | 180° |
| 2026-05-05 00:34 | 33.80417 | -81.48250 | 38042 ft | 528 kts | 178° |
| 2026-05-05 00:35 | 33.73132 | -81.47233 | 38037 ft | 526 kts | 179° |
| 2026-05-05 00:35 | 33.65846 | -81.46290 | 38018 ft | 527 kts | 179° |
| 2026-05-05 00:36 | 33.58600 | -81.45288 | 38040 ft | 527 kts | 179° |
| 2026-05-05 00:36 | 33.52487 | -81.44494 | 38050 ft | 527 kts | 179° |
| 2026-05-05 00:37 | 33.44309 | -81.43382 | 38057 ft | 527 kts | 179° |
| 2026-05-05 00:37 | 33.37013 | -81.42420 | 38053 ft | 527 kts | 179° |
| 2026-05-05 00:38 | 33.29719 | -81.41442 | 38057 ft | 528 kts | 179° |
| 2026-05-05 00:38 | 33.22451 | -81.39832 | 38066 ft | 535 kts | 173° |
| 2026-05-05 00:39 | 33.15214 | -81.37954 | 38066 ft | 535 kts | 174° |
| 2026-05-05 00:39 | 33.07937 | -81.36143 | 38065 ft | 535 kts | 173° |
| 2026-05-05 00:40 | 33.00663 | -81.34277 | 38081 ft | 535 kts | 173° |
| 2026-05-05 00:40 | 32.93384 | -81.32456 | 38082 ft | 535 kts | 173° |
| 2026-05-05 00:41 | 32.86100 | -81.30608 | 38076 ft | 535 kts | 173° |
| 2026-05-05 00:41 | 32.78809 | -81.28780 | 38067 ft | 536 kts | 174° |
| 2026-05-05 00:42 | 32.71602 | -81.26961 | 38057 ft | 530 kts | 174° |
| 2026-05-05 00:42 | 32.64357 | -81.25151 | 38058 ft | 532 kts | 174° |
| 2026-05-05 00:43 | 32.57116 | -81.23331 | 38029 ft | 532 kts | 174° |
| 2026-05-05 00:43 | 32.49851 | -81.21581 | 38053 ft | 530 kts | 178° |
| 2026-05-05 00:44 | 32.42610 | -81.21431 | 38067 ft | 518 kts | 189° |
| 2026-05-05 00:44 | 32.35452 | -81.21813 | 38083 ft | 519 kts | 188° |
| 2026-05-05 00:45 | 32.28233 | -81.22147 | 38081 ft | 519 kts | 189° |
| 2026-05-05 00:45 | 32.21018 | -81.22529 | 38087 ft | 519 kts | 189° |
| 2026-05-05 00:46 | 32.13787 | -81.22871 | 38086 ft | 519 kts | 189° |
| 2026-05-05 00:46 | 32.06570 | -81.23242 | 38084 ft | 520 kts | 189° |
| 2026-05-05 00:47 | 31.99407 | -81.23587 | 38060 ft | 519 kts | 189° |
| 2026-05-05 00:47 | 31.92118 | -81.23228 | 38057 ft | 530 kts | 181° |
| 2026-05-05 00:48 | 31.84796 | -81.22287 | 38070 ft | 529 kts | 181° |
| 2026-05-05 00:48 | 31.77462 | -81.21391 | 38070 ft | 530 kts | 181° |
| 2026-05-05 00:49 | 31.70132 | -81.20459 | 38062 ft | 530 kts | 181° |
| 2026-05-05 00:49 | 31.62853 | -81.19564 | 38065 ft | 530 kts | 181° |
| 2026-05-05 00:50 | 31.55526 | -81.18643 | 38064 ft | 530 kts | 181° |
| 2026-05-05 00:50 | 31.48188 | -81.17737 | 38043 ft | 529 kts | 182° |
| 2026-05-05 00:51 | 31.40859 | -81.16826 | 38082 ft | 530 kts | 182° |
| 2026-05-05 00:51 | 31.33534 | -81.15925 | 38078 ft | 530 kts | 182° |
| 2026-05-05 00:52 | 31.26249 | -81.15051 | 38088 ft | 530 kts | 182° |
| 2026-05-05 00:52 | 31.18928 | -81.14159 | 38082 ft | 527 kts | 182° |
| 2026-05-05 00:53 | 31.11613 | -81.13281 | 38085 ft | 528 kts | 182° |
| 2026-05-05 00:53 | 31.04293 | -81.12394 | 38086 ft | 529 kts | 182° |
| 2026-05-05 00:54 | 30.96976 | -81.11515 | 38077 ft | 529 kts | 182° |
| 2026-05-05 00:54 | 30.89676 | -81.10634 | 38080 ft | 526 kts | 182° |
| 2026-05-05 00:55 | 30.82431 | -81.09769 | 38080 ft | 527 kts | 182° |
| 2026-05-05 00:55 | 30.75132 | -81.08891 | 38082 ft | 527 kts | 182° |
| 2026-05-05 00:56 | 30.67839 | -81.08020 | 38084 ft | 527 kts | 182° |
| 2026-05-05 00:56 | 30.60594 | -81.07508 | 38076 ft | 513 kts | 190° |
| 2026-05-05 00:57 | 30.53455 | -81.07976 | 38092 ft | 514 kts | 190° |
| 2026-05-05 00:57 | 30.46303 | -81.08373 | 38089 ft | 514 kts | 191° |
| 2026-05-05 00:58 | 30.39207 | -81.08824 | 38089 ft | 514 kts | 191° |
| 2026-05-05 00:58 | 30.32059 | -81.09238 | 38088 ft | 514 kts | 191° |
| 2026-05-05 00:59 | 30.24916 | -81.09676 | 38088 ft | 514 kts | 191° |
| 2026-05-05 00:59 | 30.17765 | -81.10098 | 38091 ft | 514 kts | 191° |
| 2026-05-05 01:00 | 30.10618 | -81.10529 | 38091 ft | 514 kts | 191° |
| 2026-05-05 01:00 | 30.03534 | -81.10949 | 38092 ft | 513 kts | 190° |
| 2026-05-05 01:01 | 29.96404 | -81.11376 | 38097 ft | 513 kts | 190° |
| 2026-05-05 01:01 | 29.89274 | -81.11799 | 38094 ft | 513 kts | 190° |
| 2026-05-05 01:02 | 29.82136 | -81.12222 | 38094 ft | 514 kts | 190° |
| 2026-05-05 01:02 | 29.74961 | -81.12277 | 38086 ft | 517 kts | 187° |
| 2026-05-05 01:03 | 29.67772 | -81.12313 | 38080 ft | 516 kts | 187° |
| 2026-05-05 01:03 | 29.60591 | -81.12354 | 38091 ft | 516 kts | 187° |
| 2026-05-05 01:04 | 29.53468 | -81.12522 | 38075 ft | 515 kts | 189° |
| 2026-05-05 01:04 | 29.42724 | -81.12917 | 38067 ft | 515 kts | 189° |
| 2026-05-05 01:05 | 29.35560 | -81.13196 | 38065 ft | 515 kts | 189° |
| 2026-05-05 01:05 | 29.28347 | -81.12681 | 38061 ft | 530 kts | 176° |
| 2026-05-05 01:06 | 29.21253 | -81.10240 | 38089 ft | 539 kts | 168° |
| 2026-05-05 01:06 | 29.14119 | -81.07574 | 38098 ft | 538 kts | 168° |
| 2026-05-05 01:07 | 29.06994 | -81.04905 | 38103 ft | 539 kts | 168° |
| 2026-05-05 01:07 | 28.99875 | -81.02241 | 38097 ft | 539 kts | 168° |
| 2026-05-05 01:08 | 28.92743 | -80.99583 | 38083 ft | 539 kts | 168° |
| 2026-05-05 01:08 | 28.85595 | -80.96915 | 38078 ft | 540 kts | 168° |
| 2026-05-05 01:09 | 28.78486 | -80.94271 | 38068 ft | 540 kts | 168° |
| 2026-05-05 01:09 | 28.71437 | -80.91164 | 38057 ft | 546 kts | 163° |
| 2026-05-05 01:10 | 28.64495 | -80.87802 | 38043 ft | 541 kts | 164° |
| 2026-05-05 01:10 | 28.57511 | -80.84522 | 38090 ft | 545 kts | 163° |
| 2026-05-05 01:11 | 28.50535 | -80.81168 | 38091 ft | 544 kts | 164° |
| 2026-05-05 01:11 | 28.43587 | -80.77895 | 38091 ft | 545 kts | 164° |
| 2026-05-05 01:12 | 28.36599 | -80.74565 | 38079 ft | 545 kts | 163° |
| 2026-05-05 01:12 | 28.29582 | -80.71254 | 38066 ft | 548 kts | 164° |
| 2026-05-05 01:13 | 28.22535 | -80.67918 | 38054 ft | 548 kts | 164° |
| 2026-05-05 01:13 | 28.15321 | -80.65490 | 38046 ft | 539 kts | 173° |
| 2026-05-05 01:14 | 28.08100 | -80.63363 | 38067 ft | 540 kts | 172° |
| 2026-05-05 01:14 | 28.00835 | -80.61149 | 38044 ft | 543 kts | 173° |
| 2026-05-05 01:15 | 27.93498 | -80.58984 | 38043 ft | 546 kts | 172° |
| 2026-05-05 01:15 | 27.86161 | -80.56765 | 38053 ft | 545 kts | 172° |
| 2026-05-05 01:16 | 27.78812 | -80.54591 | 38053 ft | 546 kts | 172° |
| 2026-05-05 01:16 | 27.71539 | -80.52406 | 38059 ft | 542 kts | 172° |
| 2026-05-05 01:17 | 27.64243 | -80.50118 | 38030 ft | 547 kts | 168° |
| 2026-05-05 01:17 | 27.60706 | -80.48704 | 37343 ft | 530 kts | 167° |
| 2026-05-05 01:17 | 27.57305 | -80.47303 | 36660 ft | 512 kts | 167° |
| 2026-05-05 01:18 | 27.54008 | -80.45994 | 35991 ft | 495 kts | 168° |
| 2026-05-05 01:18 | 27.50795 | -80.44757 | 35349 ft | 484 kts | 168° |
| 2026-05-05 01:18 | 27.47628 | -80.43517 | 34719 ft | 481 kts | 167° |
| 2026-05-05 01:18 | 27.44460 | -80.42248 | 34087 ft | 485 kts | 166° |
| 2026-05-05 01:19 | 27.41262 | -80.40976 | 33383 ft | 490 kts | 167° |
| 2026-05-05 01:19 | 27.38071 | -80.39722 | 32738 ft | 494 kts | 167° |
| 2026-05-05 01:19 | 27.34826 | -80.38447 | 32095 ft | 497 kts | 167° |
| 2026-05-05 01:19 | 27.31551 | -80.37150 | 31438 ft | 499 kts | 167° |
| 2026-05-05 01:20 | 27.28276 | -80.35853 | 30780 ft | 500 kts | 167° |
| 2026-05-05 01:20 | 27.24991 | -80.34560 | 30119 ft | 499 kts | 167° |
| 2026-05-05 01:20 | 27.21739 | -80.33278 | 29420 ft | 491 kts | 167° |
| 2026-05-05 01:20 | 27.18531 | -80.32017 | 28776 ft | 485 kts | 167° |
| 2026-05-05 01:21 | 27.15359 | -80.30791 | 28138 ft | 480 kts | 167° |
| 2026-05-05 01:21 | 27.12215 | -80.29580 | 27503 ft | 475 kts | 167° |
| 2026-05-05 01:21 | 27.09146 | -80.28387 | 26893 ft | 472 kts | 167° |
| 2026-05-05 01:21 | 27.06065 | -80.27184 | 26274 ft | 467 kts | 167° |
| 2026-05-05 01:22 | 27.03012 | -80.26000 | 25660 ft | 461 kts | 167° |
| 2026-05-05 01:22 | 26.99993 | -80.24834 | 25054 ft | 457 kts | 167° |
| 2026-05-05 01:22 | 26.97010 | -80.23680 | 24454 ft | 452 kts | 167° |
| 2026-05-05 01:22 | 26.94052 | -80.22533 | 23859 ft | 447 kts | 166° |
| 2026-05-05 01:23 | 26.91127 | -80.21401 | 23222 ft | 442 kts | 166° |
| 2026-05-05 01:23 | 26.88240 | -80.20284 | 22631 ft | 437 kts | 166° |
| 2026-05-05 01:23 | 26.85370 | -80.19177 | 22060 ft | 434 kts | 166° |
| 2026-05-05 01:23 | 26.82562 | -80.18126 | 21477 ft | 429 kts | 167° |
| 2026-05-05 01:24 | 26.79737 | -80.17103 | 20931 ft | 426 kts | 168° |
| 2026-05-05 01:24 | 26.76938 | -80.16074 | 20376 ft | 417 kts | 167° |
| 2026-05-05 01:24 | 26.74254 | -80.15058 | 19831 ft | 396 kts | 167° |
| 2026-05-05 01:24 | 26.71691 | -80.14102 | 19326 ft | 383 kts | 168° |
| 2026-05-05 01:25 | 26.69146 | -80.13367 | 18828 ft | 374 kts | 173° |
| 2026-05-05 01:25 | 26.66613 | -80.12707 | 18328 ft | 374 kts | 172° |
| 2026-05-05 01:25 | 26.64089 | -80.12014 | 17808 ft | 373 kts | 171° |
| 2026-05-05 01:25 | 26.61614 | -80.11326 | 17332 ft | 370 kts | 171° |
| 2026-05-05 01:26 | 26.59124 | -80.10689 | 16832 ft | 364 kts | 174° |
| 2026-05-05 01:26 | 26.56650 | -80.10111 | 16364 ft | 363 kts | 172° |
| 2026-05-05 01:26 | 26.54197 | -80.09448 | 15884 ft | 361 kts | 171° |
| 2026-05-05 01:26 | 26.51768 | -80.08812 | 15402 ft | 357 kts | 172° |
| 2026-05-05 01:27 | 26.49344 | -80.08228 | 14941 ft | 356 kts | 172° |
| 2026-05-05 01:27 | 26.46928 | -80.07641 | 14459 ft | 354 kts | 171° |
| 2026-05-05 01:27 | 26.44529 | -80.07132 | 13999 ft | 349 kts | 174° |
| 2026-05-05 01:27 | 26.42156 | -80.06620 | 13507 ft | 346 kts | 172° |
| 2026-05-05 01:28 | 26.39845 | -80.06079 | 13065 ft | 342 kts | 171° |
| 2026-05-05 01:28 | 26.37565 | -80.05441 | 13020 ft | 340 kts | 169° |
| 2026-05-05 01:28 | 26.35248 | -80.04844 | 13022 ft | 340 kts | 171° |
| 2026-05-05 01:28 | 26.33043 | -80.04265 | 13014 ft | 312 kts | 169° |
| 2026-05-05 01:29 | 26.30998 | -80.03689 | 13005 ft | 297 kts | 169° |
| 2026-05-05 01:29 | 26.28966 | -80.03130 | 13009 ft | 304 kts | 170° |
| 2026-05-05 01:29 | 26.26900 | -80.02573 | 13010 ft | 306 kts | 170° |
| 2026-05-05 01:29 | 26.24812 | -80.02341 | 12972 ft | 300 kts | 189° |
| 2026-05-05 01:30 | 26.22781 | -80.02774 | 13023 ft | 299 kts | 195° |
| 2026-05-05 01:30 | 26.20769 | -80.03244 | 13022 ft | 297 kts | 196° |
| 2026-05-05 01:30 | 26.18743 | -80.03703 | 13027 ft | 298 kts | 196° |
| 2026-05-05 01:30 | 26.16712 | -80.04165 | 13028 ft | 297 kts | 196° |
| 2026-05-05 01:31 | 26.14685 | -80.04629 | 13025 ft | 298 kts | 196° |
| 2026-05-05 01:31 | 26.12655 | -80.05093 | 13018 ft | 298 kts | 196° |
| 2026-05-05 01:31 | 26.10629 | -80.05556 | 13015 ft | 297 kts | 196° |
| 2026-05-05 01:31 | 26.08591 | -80.06021 | 12778 ft | 300 kts | 196° |
| 2026-05-05 01:32 | 26.06546 | -80.06507 | 12407 ft | 299 kts | 198° |
| 2026-05-05 01:32 | 26.04541 | -80.07062 | 12035 ft | 296 kts | 197° |
| 2026-05-05 01:32 | 26.02536 | -80.07549 | 11663 ft | 293 kts | 196° |
| 2026-05-05 01:32 | 26.00585 | -80.08036 | 11299 ft | 290 kts | 197° |
| 2026-05-05 01:33 | 25.98633 | -80.08553 | 10929 ft | 288 kts | 197° |
| 2026-05-05 01:33 | 25.96687 | -80.09066 | 10572 ft | 286 kts | 197° |
| 2026-05-05 01:33 | 25.94751 | -80.09566 | 10211 ft | 285 kts | 196° |
| 2026-05-05 01:33 | 25.92863 | -80.10155 | 9811 ft | 280 kts | 206° |
| 2026-05-05 01:34 | 25.91304 | -80.11399 | 9435 ft | 274 kts | 226° |
| 2026-05-05 01:34 | 25.90028 | -80.12960 | 9134 ft | 274 kts | 230° |
| 2026-05-05 01:34 | 25.88779 | -80.14562 | 8783 ft | 274 kts | 233° |
| 2026-05-05 01:34 | 25.88006 | -80.16480 | 8400 ft | 273 kts | 257° |
| 2026-05-05 01:35 | 25.87854 | -80.18568 | 8092 ft | 271 kts | 268° |
| 2026-05-05 01:35 | 25.87823 | -80.20639 | 7766 ft | 272 kts | 268° |
| 2026-05-05 01:35 | 25.87755 | -80.22733 | 7422 ft | 272 kts | 267° |
| 2026-05-05 01:35 | 25.87675 | -80.24823 | 7076 ft | 271 kts | 267° |
| 2026-05-05 01:36 | 25.87608 | -80.26917 | 6729 ft | 271 kts | 267° |
| 2026-05-05 01:36 | 25.87683 | -80.28992 | 6328 ft | 271 kts | 281° |
| 2026-05-05 01:36 | 25.88439 | -80.30894 | 6010 ft | 269 kts | 297° |
| 2026-05-05 01:36 | 25.89348 | -80.32721 | 5693 ft | 270 kts | 297° |
| 2026-05-05 01:37 | 25.90228 | -80.34523 | 5360 ft | 265 kts | 297° |
| 2026-05-05 01:37 | 25.91083 | -80.36286 | 5026 ft | 254 kts | 297° |
| 2026-05-05 01:37 | 25.91911 | -80.37992 | 4696 ft | 248 kts | 298° |
| 2026-05-05 01:37 | 25.92728 | -80.39670 | 4380 ft | 247 kts | 298° |
| 2026-05-05 01:38 | 25.93524 | -80.41367 | 4063 ft | 248 kts | 294° |
| 2026-05-05 01:38 | 25.93757 | -80.43247 | 3920 ft | 243 kts | 268° |
| 2026-05-05 01:38 | 25.93704 | -80.45131 | 4018 ft | 245 kts | 268° |
| 2026-05-05 01:38 | 25.93592 | -80.46942 | 3960 ft | 229 kts | 255° |
| 2026-05-05 01:39 | 25.92734 | -80.48368 | 3947 ft | 221 kts | 223° |
| 2026-05-05 01:39 | 25.91503 | -80.49383 | 4002 ft | 223 kts | 209° |
| 2026-05-05 01:39 | 25.90003 | -80.49817 | 3960 ft | 226 kts | 178° |
| 2026-05-05 01:39 | 25.88555 | -80.49225 | 3601 ft | 227 kts | 137° |
| 2026-05-05 01:40 | 25.87867 | -80.47767 | 3394 ft | 210 kts | 96° |
| 2026-05-05 01:40 | 25.88267 | -80.46294 | 3201 ft | 199 kts | 57° |
| 2026-05-05 01:40 | 25.88677 | -80.44887 | 3031 ft | 201 kts | 96° |
| 2026-05-05 01:40 | 25.88000 | -80.43525 | 2776 ft | 203 kts | 133° |
| 2026-05-05 01:41 | 25.87018 | -80.42450 | 2824 ft | 201 kts | 132° |
| 2026-05-05 01:41 | 25.86018 | -80.41346 | 2728 ft | 206 kts | 134° |
| 2026-05-05 01:41 | 25.85068 | -80.40213 | 2272 ft | 186 kts | 124° |
| 2026-05-05 01:41 | 25.84436 | -80.39064 | 1766 ft | 167 kts | 116° |
| 2026-05-05 01:42 | 25.83887 | -80.37989 | 1547 ft | 157 kts | 116° |
| 2026-05-05 01:42 | 25.83343 | -80.36918 | 1350 ft | 165 kts | 117° |
| 2026-05-05 01:42 | 25.82773 | -80.35798 | 1138 ft | 168 kts | 117° |
| 2026-05-05 01:42 | 25.82194 | -80.34669 | 924 ft | 169 kts | 118° |
| 2026-05-05 01:43 | 25.81613 | -80.33537 | 714 ft | 169 kts | 117° |
| 2026-05-05 01:43 | 25.81065 | -80.32443 | 503 ft | 151 kts | 115° |
| 2026-05-05 01:43 | 25.80608 | -80.31480 | 750 ft | 147 kts | 115° |
| 2026-05-05 01:43 | 25.80088 | -80.30420 | 1016 ft | 167 kts | 115° |
| 2026-05-05 01:44 | 25.79476 | -80.29186 | 1488 ft | 198 kts | 117° |
| 2026-05-05 01:44 | 25.78751 | -80.27759 | 1998 ft | 225 kts | 117° |
| 2026-05-05 01:44 | 25.77942 | -80.26199 | 2534 ft | 247 kts | 118° |
| 2026-05-05 01:44 | 25.77050 | -80.24531 | 2818 ft | 258 kts | 120° |
| 2026-05-05 01:45 | 25.76113 | -80.22829 | 3424 ft | 258 kts | 121° |
| 2026-05-05 01:45 | 25.75117 | -80.21053 | 3107 ft | 274 kts | 121° |
| 2026-05-05 01:45 | 25.74072 | -80.19340 | 2832 ft | 262 kts | 124° |
| 2026-05-05 01:45 | 25.72997 | -80.17769 | 2761 ft | 256 kts | 131° |
| 2026-05-05 01:46 | 25.71351 | -80.16812 | 3009 ft | 279 kts | 167° |
| 2026-05-05 01:46 | 25.69470 | -80.16986 | 2950 ft | 274 kts | 199° |
| 2026-05-05 01:46 | 25.68093 | -80.18246 | 2958 ft | 271 kts | 235° |
| 2026-05-05 01:46 | 25.67577 | -80.20332 | 2971 ft | 276 kts | 272° |
| 2026-05-05 01:47 | 25.68024 | -80.22352 | 3032 ft | 273 kts | 290° |
| 2026-05-05 01:47 | 25.68719 | -80.24317 | 3031 ft | 274 kts | 292° |
| 2026-05-05 01:47 | 25.69430 | -80.26270 | 3012 ft | 269 kts | 292° |
| 2026-05-05 01:47 | 25.70089 | -80.28089 | 2979 ft | 231 kts | 293° |
| 2026-05-05 01:48 | 25.70296 | -80.29684 | 2765 ft | 204 kts | 259° |
| 2026-05-05 01:48 | 25.69828 | -80.31179 | 2770 ft | 207 kts | 247° |
| 2026-05-05 01:48 | 25.69289 | -80.32741 | 3029 ft | 222 kts | 249° |
| 2026-05-05 01:48 | 25.68746 | -80.34354 | 3010 ft | 224 kts | 249° |
| 2026-05-05 01:49 | 25.68207 | -80.35952 | 3011 ft | 217 kts | 249° |
| 2026-05-05 01:49 | 25.67698 | -80.37467 | 2999 ft | 206 kts | 249° |
| 2026-05-05 01:49 | 25.67292 | -80.38953 | 2987 ft | 193 kts | 256° |
| 2026-05-05 01:49 | 25.67094 | -80.40373 | 2993 ft | 186 kts | 263° |
| 2026-05-05 01:50 | 25.66972 | -80.41766 | 2972 ft | 175 kts | 272° |
| 2026-05-05 01:50 | 25.67313 | -80.43009 | 2957 ft | 158 kts | 295° |
| 2026-05-05 01:50 | 25.67686 | -80.44057 | 2982 ft | 137 kts | 292° |
| 2026-05-05 01:50 | 25.68016 | -80.45014 | 2977 ft | 129 kts | 292° |
| 2026-05-05 01:51 | 25.68344 | -80.45918 | 2988 ft | 126 kts | 293° |
| 2026-05-05 01:51 | 25.68676 | -80.46827 | 2986 ft | 127 kts | 293° |
| 2026-05-05 01:51 | 25.69002 | -80.47731 | 2986 ft | 126 kts | 292° |
| 2026-05-05 01:51 | 25.69323 | -80.48620 | 2988 ft | 126 kts | 293° |
| 2026-05-05 01:52 | 25.69654 | -80.49534 | 2900 ft | 134 kts | 292° |
| 2026-05-05 01:52 | 25.70009 | -80.50518 | 2710 ft | 138 kts | 295° |
| 2026-05-05 01:52 | 25.70739 | -80.51121 | 2268 ft | 135 kts | 1° |
| 2026-05-05 01:52 | 25.71617 | -80.50967 | 2051 ft | 116 kts | 11° |
| 2026-05-05 01:53 | 25.72318 | -80.50742 | 2121 ft | 104 kts | 31° |
| 2026-05-05 01:53 | 25.73041 | -80.50400 | 2425 ft | 124 kts | 23° |
| 2026-05-05 01:53 | 25.73898 | -80.50058 | 2647 ft | 136 kts | 26° |
| 2026-05-05 01:53 | 25.74761 | -80.49641 | 2539 ft | 142 kts | 27° |
| 2026-05-05 01:54 | 25.75755 | -80.49158 | 2513 ft | 163 kts | 27° |
| 2026-05-05 01:54 | 25.76798 | -80.48643 | 2507 ft | 167 kts | 27° |
| 2026-05-05 01:54 | 25.77848 | -80.48128 | 2509 ft | 165 kts | 27° |
| 2026-05-05 01:54 | 25.78932 | -80.47601 | 2510 ft | 178 kts | 26° |
| 2026-05-05 01:55 | 25.80076 | -80.46959 | 2477 ft | 185 kts | 38° |
| 2026-05-05 01:55 | 25.80884 | -80.45907 | 2491 ft | 173 kts | 57° |
| 2026-05-05 01:55 | 25.81525 | -80.44759 | 2490 ft | 176 kts | 63° |
| 2026-05-05 01:55 | 25.81970 | -80.43499 | 2485 ft | 179 kts | 72° |
| 2026-05-05 01:56 | 25.82361 | -80.42215 | 2132 ft | 167 kts | 72° |
| 2026-05-05 01:56 | 25.82701 | -80.41121 | 1962 ft | 131 kts | 72° |
| 2026-05-05 01:56 | 25.82972 | -80.40243 | 1829 ft | 118 kts | 71° |
| 2026-05-05 01:56 | 25.83227 | -80.39392 | 1615 ft | 114 kts | 73° |
| 2026-05-05 01:57 | 25.83365 | -80.38528 | 1432 ft | 115 kts | 84° |
| 2026-05-05 01:57 | 25.83335 | -80.37642 | 1267 ft | 118 kts | 101° |
| 2026-05-05 01:57 | 25.83088 | -80.36772 | 1183 ft | 118 kts | 109° |
| 2026-05-05 01:57 | 25.82750 | -80.35951 | 1156 ft | 116 kts | 112° |
| 2026-05-05 01:58 | 25.82399 | -80.35123 | 1037 ft | 122 kts | 112° |
| 2026-05-05 01:58 | 25.82008 | -80.34288 | 927 ft | 122 kts | 115° |
| 2026-05-05 01:58 | 25.81593 | -80.33470 | 813 ft | 123 kts | 116° |
| 2026-05-05 01:58 | 25.81165 | -80.32634 | 613 ft | 126 kts | 116° |
| 2026-05-05 01:59 | 25.80742 | -80.31787 | 402 ft | 124 kts | 115° |
| 2026-05-05 01:59 | 25.80317 | -80.30965 | 202 ft | 121 kts | 116° |
| 2026-05-05 01:59 | 25.79902 | -80.30168 | 31 ft | 115 kts | 116° |
| 2026-05-05 01:59 | 25.79548 | -80.29470 | 17 ft | 93 kts | 119° |
| 2026-05-05 02:00 | 25.79255 | -80.28906 | 14 ft | 77 kts | 120° |
| 2026-05-05 02:00 | 25.79100 | -80.28549 | 15 ft | 33 kts | 95° |
| 2026-05-05 02:00 | 25.79139 | -80.28445 | 18 ft | 6 kts | 7° |
| 2026-05-05 02:00 | 25.79160 | -80.28478 | 17 ft | 6 kts | 286° |
| 2026-05-05 02:01 | 25.79182 | -80.28524 | 16 ft | 7 kts | 300° |
| 2026-05-05 02:01 | 25.79208 | -80.28572 | 19 ft | 7 kts | 300° |
| 2026-05-05 02:01 | 25.79223 | -80.28600 | 16 ft | 6 kts | 300° |
| 2026-05-05 02:01 | 25.79259 | -80.28669 | 15 ft | 11 kts | 301° |
| 2026-05-05 02:02 | 25.79300 | -80.28743 | 13 ft | 11 kts | 301° |
| 2026-05-05 02:02 | 25.79341 | -80.28827 | 14 ft | 14 kts | 297° |
| 2026-05-05 02:02 | 25.79415 | -80.28890 | 16 ft | 14 kts | 355° |
| 2026-05-05 02:02 | 25.79543 | -80.28894 | 17 ft | 23 kts | 358° |
| 2026-05-05 02:03 | 25.79726 | -80.28906 | 21 ft | 29 kts | 356° |
| 2026-05-05 02:03 | 25.79910 | -80.28915 | 22 ft | 21 kts | 357° |
| 2026-05-05 02:03 | 25.80001 | -80.28906 | 22 ft | 9 kts | 40° |
| 2026-05-05 02:03 | 25.80020 | -80.28850 | 23 ft | 6 kts | 59° |
| 2026-05-05 02:04 | 25.80052 | -80.28834 | 23 ft | 6 kts | 6° |
| 2026-05-05 02:04 | 25.80130 | -80.28861 | 22 ft | 15 kts | 307° |
| 2026-05-05 02:04 | 25.80174 | -80.28972 | 22 ft | 16 kts | 294° |
| 2026-05-05 02:04 | 25.80218 | -80.29037 | 22 ft | 13 kts | 285° |
| 2026-05-05 02:05 | 25.80225 | -80.29149 | 19 ft | 11 kts | 279° |
| 2026-05-05 02:05 | 25.80244 | -80.29166 | 20 ft | 2 kts | 12° |
| 2026-05-05 02:05 | 25.80274 | -80.29142 | 18 ft | 11 kts | 33° |
| 2026-05-05 02:05 | 25.80377 | -80.29151 | 18 ft | 16 kts | 348° |
| 2026-05-05 02:06 | 25.80477 | -80.29151 | 18 ft | 14 kts | 12° |
| 2026-05-05 02:06 | 25.80578 | -80.29137 | 15 ft | 15 kts | 3° |
| 2026-05-05 02:06 | 25.80644 | -80.29097 | 15 ft | 10 kts | 74° |
| 2026-05-05 02:06 | 25.80647 | -80.29055 | 16 ft | 0 kts | 89° |